createdAt,value
2019-05-29T00:00:10.154Z,3.10
2019-05-29T00:02:38.998Z,3.15
2019-05-29T00:05:08.489Z,3.40
2019-05-29T00:07:37.079Z,4.72
2019-05-29T00:10:08.780Z,4.42
2019-05-29T00:12:37.401Z,3.65
2019-05-29T00:15:06.588Z,4.45
2019-05-29T00:17:35.010Z,7.10
2019-05-29T00:20:06.328Z,4.67
2019-05-29T00:22:34.904Z,4.20
2019-05-29T00:25:04.667Z,3.98
2019-05-29T00:27:33.497Z,5.30
2019-05-29T00:30:01.983Z,5.15
2019-05-29T00:32:30.821Z,4.05
2019-05-29T00:34:59.402Z,6.10
2019-05-29T00:37:28.863Z,4.03
2019-05-29T00:39:57.721Z,4.47
2019-05-29T00:42:25.939Z,4.60
2019-05-29T00:44:54.439Z,3.55
2019-05-29T00:47:22.595Z,4.30
2019-05-29T00:49:51.051Z,4.03
2019-05-29T00:52:19.292Z,4.77
2019-05-29T00:54:47.759Z,4.20
2019-05-29T00:57:17.055Z,7.27
2019-05-29T00:59:46.056Z,4.28
2019-05-29T01:02:15.749Z,3.63
2019-05-29T01:04:44.751Z,5.17
2019-05-29T01:07:14.154Z,7.97
2019-05-29T01:09:43.143Z,3.58
2019-05-29T01:12:11.415Z,3.83
2019-05-29T01:14:49.555Z,3.70
2019-05-29T01:17:10.021Z,4.53
2019-05-29T01:19:38.811Z,4.03
2019-05-29T01:22:07.309Z,5.30
2019-05-29T01:24:35.774Z,3.90
2019-05-29T01:27:04.547Z,4.40
2019-05-29T01:29:33.088Z,4.08
2019-05-29T01:32:01.409Z,5.10
2019-05-29T01:34:29.875Z,5.35
2019-05-29T01:36:58.112Z,4.63
2019-05-29T01:39:27.749Z,4.35
2019-05-29T01:41:56.183Z,3.40
2019-05-29T01:44:24.684Z,8.48
2019-05-29T01:46:53.126Z,5.17
2019-05-29T01:49:21.883Z,4.60
2019-05-29T01:51:50.267Z,5.33
2019-05-29T01:54:19.725Z,4.00
2019-05-29T01:56:48.414Z,6.23
2019-05-29T01:59:17.754Z,7.03
2019-05-29T02:01:46.057Z,5.30
2019-05-29T02:04:15.743Z,10.15
2019-05-29T02:06:44.088Z,4.87
2019-05-29T02:09:12.958Z,5.22
2019-05-29T02:11:42.169Z,7.80
2019-05-29T02:14:10.690Z,6.35
2019-05-29T02:16:40.011Z,6.37
2019-05-29T02:19:08.551Z,4.95
2019-05-29T02:21:37.356Z,4.28
2019-05-29T02:24:06.204Z,4.37
2019-05-29T02:26:34.690Z,5.63
2019-05-29T02:29:03.546Z,5.87
2019-05-29T02:31:31.701Z,5.57
2019-05-29T02:34:00.563Z,5.67
2019-05-29T02:36:29.387Z,5.08
2019-05-29T02:38:58.177Z,6.05
2019-05-29T02:41:28.407Z,6.17
2019-05-29T02:43:58.052Z,4.22
2019-05-29T02:46:28.106Z,5.70
2019-05-29T02:48:56.994Z,7.50
2019-05-29T02:51:26.458Z,5.70
2019-05-29T02:53:55.391Z,4.92
2019-05-29T02:56:24.888Z,5.78
2019-05-29T02:58:53.578Z,6.08
2019-05-29T03:01:23.572Z,5.33
2019-05-29T03:03:52.180Z,5.60
2019-05-29T03:06:40.169Z,4.50
2019-05-29T03:09:08.757Z,5.58
2019-05-29T03:11:37.061Z,5.87
2019-05-29T03:14:05.990Z,5.33
2019-05-29T03:16:35.039Z,4.60
2019-05-29T03:19:04.089Z,6.05
2019-05-29T03:21:32.609Z,5.20
2019-05-29T03:24:02.013Z,5.00
2019-05-29T03:26:31.444Z,5.77
2019-05-29T03:29:00.415Z,5.10
2019-05-29T03:31:36.823Z,5.77
2019-05-29T03:33:59.579Z,5.45
2019-05-29T03:36:32.165Z,6.00
2019-05-29T03:38:58.309Z,8.70
2019-05-29T03:41:28.136Z,6.33
2019-05-29T03:43:56.717Z,8.53
2019-05-29T03:46:31.296Z,5.08
2019-05-29T03:48:55.418Z,5.95
2019-05-29T03:51:23.922Z,6.15
2019-05-29T03:53:52.776Z,6.05
2019-05-29T03:56:21.391Z,4.83
2019-05-29T03:58:50.158Z,4.40
2019-05-29T04:01:18.711Z,6.47
2019-05-29T04:03:47.197Z,4.85
2019-05-29T04:06:17.121Z,5.12
2019-05-29T04:08:45.923Z,5.65
2019-05-29T04:11:14.139Z,5.97
2019-05-29T04:13:42.635Z,3.65
2019-05-29T04:16:11.692Z,6.93
2019-05-29T04:18:40.538Z,4.25
2019-05-29T04:21:10.270Z,5.25
2019-05-29T04:23:42.300Z,4.28
2019-05-29T04:26:13.812Z,3.93
2019-05-29T04:28:42.398Z,4.60
2019-05-29T04:31:10.655Z,4.20
2019-05-29T04:33:39.430Z,4.00
2019-05-29T04:36:07.970Z,5.00
2019-05-29T04:38:38.487Z,5.25
2019-05-29T04:41:06.630Z,5.40
2019-05-29T04:43:37.130Z,5.42
2019-05-29T04:46:05.336Z,4.70
2019-05-29T04:48:35.743Z,5.50
2019-05-29T04:51:04.257Z,4.43
2019-05-29T04:53:33.641Z,5.45
2019-05-29T04:56:02.802Z,6.43
2019-05-29T04:58:32.773Z,5.15
2019-05-29T05:01:01.134Z,7.20
2019-05-29T05:03:30.990Z,5.75
2019-05-29T05:06:18.680Z,5.77
2019-05-29T05:08:47.221Z,5.95
2019-05-29T05:11:15.671Z,4.70
2019-05-29T05:13:44.803Z,5.67
2019-05-29T05:16:13.407Z,5.00
2019-05-29T05:18:41.970Z,10.53
2019-05-29T05:21:10.519Z,5.28
2019-05-29T05:23:38.693Z,5.50
2019-05-29T05:26:07.055Z,5.03
2019-05-29T05:28:36.386Z,5.67
2019-05-29T05:31:04.723Z,6.77
2019-05-29T05:33:33.056Z,6.33
2019-05-29T05:36:01.251Z,4.90
2019-05-29T05:38:30.515Z,5.23
2019-05-29T05:40:58.907Z,6.27
2019-05-29T05:43:27.067Z,6.00
2019-05-29T05:45:55.317Z,7.80
2019-05-29T05:48:23.517Z,4.73
2019-05-29T05:50:51.769Z,4.37
2019-05-29T05:53:19.973Z,3.90
2019-05-29T05:56:07.467Z,11.20
2019-05-29T05:58:35.789Z,6.23
2019-05-29T06:01:04.619Z,5.80
2019-05-29T06:03:33.970Z,4.30
2019-05-29T06:06:02.364Z,8.57
2019-05-29T06:08:31.956Z,5.97
2019-05-29T06:11:00.508Z,4.57
2019-05-29T06:13:28.728Z,3.70
2019-05-29T06:15:57.243Z,7.63
2019-05-29T06:18:25.506Z,4.00
2019-05-29T06:20:53.741Z,5.80
2019-05-29T06:23:23.256Z,5.03
2019-05-29T06:25:51.416Z,5.60
2019-05-29T06:28:20.034Z,3.43
2019-05-29T06:30:48.472Z,4.00
2019-05-29T06:33:16.666Z,5.10
2019-05-29T06:35:45.242Z,5.00
2019-05-29T06:38:13.742Z,2.60
2019-05-29T06:40:44.047Z,6.90
2019-05-29T06:43:22.713Z,5.30
2019-05-29T06:45:51.138Z,4.27
2019-05-29T06:48:37.926Z,3.47
2019-05-29T06:50:50.893Z,2.80
2019-05-29T06:53:19.831Z,4.13
2019-05-29T06:55:54.097Z,3.33
2019-05-29T06:58:19.078Z,2.97
2019-05-29T07:00:47.380Z,4.53
2019-05-29T07:03:15.573Z,6.37
2019-05-29T07:05:50.605Z,5.07
2019-05-29T07:08:20.830Z,2.40
2019-05-29T07:10:44.676Z,5.37
2019-05-29T07:13:13.082Z,4.93
2019-05-29T07:15:42.820Z,1.93
2019-05-29T07:18:11.172Z,3.13
2019-05-29T07:20:40.573Z,4.20
2019-05-29T07:23:08.859Z,2.70
2019-05-29T07:25:37.130Z,2.93
2019-05-29T07:28:05.455Z,2.53
2019-05-29T07:30:34.048Z,3.70
2019-05-29T07:33:02.359Z,2.77
2019-05-29T07:35:50.333Z,3.83
2019-05-29T07:38:18.829Z,3.00
2019-05-29T07:40:49.917Z,6.37
2019-05-29T07:43:17.895Z,2.73
2019-05-29T07:45:46.331Z,4.03
2019-05-29T07:48:14.577Z,2.87
2019-05-29T07:50:42.834Z,2.30
2019-05-29T07:53:11.067Z,2.80
2019-05-29T07:55:40.380Z,5.13
2019-05-29T07:58:08.666Z,2.20
2019-05-29T08:00:59.868Z,3.07
2019-05-29T08:03:07.543Z,3.70
2019-05-29T08:05:36.248Z,1.97
2019-05-29T08:08:04.568Z,3.53
2019-05-29T08:10:32.857Z,2.50
2019-05-29T08:13:01.087Z,4.00
2019-05-29T08:15:29.741Z,4.00
2019-05-29T08:17:57.911Z,2.50
2019-05-29T08:20:26.484Z,2.50
2019-05-29T08:22:54.719Z,2.57
2019-05-29T08:25:22.963Z,2.23
2019-05-29T08:27:51.203Z,3.53
2019-05-29T08:30:19.455Z,7.90
2019-05-29T08:32:47.603Z,1.93
2019-05-29T08:35:16.041Z,1.63
2019-05-29T08:37:45.001Z,2.90
2019-05-29T08:40:13.837Z,2.57
2019-05-29T08:42:43.108Z,2.67
2019-05-29T08:45:12.621Z,1.50
2019-05-29T08:47:41.468Z,3.50
2019-05-29T08:50:19.409Z,3.77
2019-05-29T08:52:41.782Z,2.03
2019-05-29T08:55:10.050Z,5.07
2019-05-29T08:57:40.211Z,1.70
2019-05-29T09:00:09.893Z,3.37
2019-05-29T09:02:38.142Z,2.40
2019-05-29T09:05:06.475Z,7.13
2019-05-29T09:07:34.722Z,2.97
2019-05-29T09:10:04.567Z,4.37
2019-05-29T09:12:32.852Z,3.53
2019-05-29T09:15:01.040Z,2.50
2019-05-29T09:17:29.296Z,2.00
2019-05-29T09:19:57.453Z,2.10
2019-05-29T09:22:25.708Z,2.27
2019-05-29T09:24:53.960Z,2.83
2019-05-29T09:27:23.284Z,3.07
2019-05-29T09:29:51.560Z,3.30
2019-05-29T09:32:48.339Z,3.80
2019-05-29T09:34:55.751Z,4.23
2019-05-29T09:37:24.610Z,2.57
2019-05-29T09:39:52.816Z,5.07
2019-05-29T09:42:22.394Z,2.03
2019-05-29T09:44:51.729Z,2.20
2019-05-29T09:47:20.330Z,2.30
2019-05-29T09:49:49.970Z,1.83
2019-05-29T09:52:18.595Z,2.77
2019-05-29T09:54:46.816Z,3.30
2019-05-29T09:57:15.512Z,3.70
2019-05-29T09:59:43.903Z,1.50
2019-05-29T10:02:12.521Z,3.30
2019-05-29T10:04:40.769Z,3.00
2019-05-29T10:07:10.765Z,3.10
2019-05-29T10:09:39.004Z,2.23
2019-05-29T10:12:07.783Z,2.33
2019-05-29T10:14:36.056Z,7.60
2019-05-29T10:17:10.994Z,2.60
2019-05-29T10:19:34.498Z,2.53
2019-05-29T10:22:04.059Z,4.43
2019-05-29T10:24:32.704Z,3.60
2019-05-29T10:27:02.989Z,3.97
2019-05-29T10:29:31.018Z,3.50
2019-05-29T10:31:59.618Z,2.00
2019-05-29T10:34:27.975Z,2.53
2019-05-29T10:36:56.542Z,1.90
2019-05-29T10:39:25.140Z,2.40
2019-05-29T10:41:53.667Z,2.70
2019-05-29T10:44:22.110Z,2.27
2019-05-29T10:46:52.025Z,2.23
2019-05-29T10:49:20.430Z,1.80
2019-05-29T10:52:05.768Z,1.70
2019-05-29T10:54:18.534Z,2.07
2019-05-29T10:56:46.948Z,1.40
2019-05-29T10:59:15.552Z,3.00
2019-05-29T11:01:45.010Z,1.63
2019-05-29T11:04:13.393Z,1.70
2019-05-29T11:06:41.649Z,1.97
2019-05-29T11:09:09.925Z,2.43
2019-05-29T11:11:38.167Z,1.50
2019-05-29T11:14:06.511Z,1.93
2019-05-29T11:16:34.758Z,2.03
2019-05-29T11:19:03.041Z,1.33
2019-05-29T11:21:31.426Z,1.30
2019-05-29T11:23:59.728Z,2.83
2019-05-29T11:26:28.036Z,2.33
2019-05-29T11:28:56.734Z,1.47
2019-05-29T11:31:24.983Z,2.50
2019-05-29T11:33:53.256Z,2.07
2019-05-29T11:36:21.481Z,1.83
2019-05-29T11:38:50.479Z,1.70
2019-05-29T11:41:26.395Z,4.80
2019-05-29T11:43:49.586Z,2.53
2019-05-29T11:46:19.298Z,2.53
2019-05-29T11:49:06.931Z,2.60
2019-05-29T11:51:35.522Z,3.17
2019-05-29T11:54:04.163Z,2.90
2019-05-29T11:56:32.750Z,2.17
2019-05-29T11:59:01.014Z,2.27
2019-05-29T12:01:29.691Z,1.40
2019-05-29T12:04:21.962Z,4.00
2019-05-29T12:06:28.271Z,3.23
2019-05-29T12:08:57.795Z,3.40
2019-05-29T12:11:26.707Z,2.73
2019-05-29T12:13:56.078Z,2.10
2019-05-29T12:16:24.857Z,3.53
2019-05-29T12:18:53.701Z,1.83
2019-05-29T12:21:22.336Z,3.30
2019-05-29T12:23:51.942Z,2.40
2019-05-29T12:26:23.055Z,3.27
2019-05-29T12:28:50.857Z,1.40
2019-05-29T12:31:19.548Z,1.87
2019-05-29T12:33:48.127Z,1.70
2019-05-29T12:36:16.662Z,2.47
2019-05-29T12:38:45.240Z,2.17
2019-05-29T12:41:14.892Z,2.00
2019-05-29T12:43:43.481Z,1.17
2019-05-29T12:46:12.095Z,1.57
2019-05-29T12:48:40.669Z,3.10
2019-05-29T12:51:09.282Z,1.00
2019-05-29T12:53:38.000Z,2.30
2019-05-29T12:56:06.755Z,1.97
2019-05-29T12:58:35.378Z,2.20
2019-05-29T13:01:05.170Z,3.90
2019-05-29T13:03:34.586Z,1.50
2019-05-29T13:06:04.381Z,1.50
2019-05-29T13:08:32.786Z,2.27
2019-05-29T13:11:02.521Z,2.20
2019-05-29T13:13:30.927Z,1.70
2019-05-29T13:15:59.225Z,2.80
2019-05-29T13:18:27.524Z,4.03
2019-05-29T13:20:56.721Z,3.63
2019-05-29T13:23:25.017Z,1.83
2019-05-29T13:25:53.712Z,2.43
2019-05-29T13:28:22.302Z,2.83
2019-05-29T13:30:50.980Z,1.50
2019-05-29T13:33:19.507Z,1.83
2019-05-29T13:35:48.125Z,2.83
2019-05-29T13:38:16.861Z,1.50
2019-05-29T13:40:45.725Z,2.27
2019-05-29T13:43:15.802Z,3.77
2019-05-29T13:45:44.906Z,2.20
2019-05-29T13:48:13.536Z,1.07
2019-05-29T13:50:42.781Z,1.12
2019-05-29T13:53:12.020Z,2.83
2019-05-29T13:55:40.873Z,1.17
2019-05-29T13:58:10.115Z,1.52
2019-05-29T14:00:38.855Z,1.47
2019-05-29T14:03:08.826Z,1.60
2019-05-29T14:05:37.085Z,2.03
2019-05-29T14:08:07.059Z,3.27
2019-05-29T14:10:35.503Z,1.80
2019-05-29T14:13:05.133Z,2.43
2019-05-29T14:15:34.164Z,2.60
2019-05-29T14:18:04.772Z,1.60
2019-05-29T14:20:33.537Z,2.25
2019-05-29T14:23:02.928Z,2.02
2019-05-29T14:25:32.438Z,1.25
2019-05-29T14:28:02.655Z,1.98
2019-05-29T14:30:31.018Z,1.00
2019-05-29T14:32:59.294Z,1.10
2019-05-29T14:35:28.108Z,2.90
2019-05-29T14:37:56.324Z,1.10
2019-05-29T14:40:24.566Z,2.90
2019-05-29T14:42:53.165Z,1.00
2019-05-29T14:45:21.643Z,1.10
2019-05-29T14:47:50.182Z,1.60
2019-05-29T14:50:18.808Z,1.43
2019-05-29T14:52:47.066Z,2.42
2019-05-29T14:55:18.116Z,1.20
2019-05-29T14:57:45.512Z,1.20
2019-05-29T15:00:24.155Z,2.40
2019-05-29T15:02:44.753Z,1.93
2019-05-29T15:05:14.948Z,1.77
2019-05-29T15:07:43.779Z,3.07
2019-05-29T15:10:23.922Z,1.93
2019-05-29T15:12:42.444Z,2.40
2019-05-29T15:15:13.130Z,1.37
2019-05-29T15:17:41.459Z,1.40
2019-05-29T15:20:10.401Z,1.23
2019-05-29T15:22:40.717Z,2.10
2019-05-29T15:25:18.571Z,2.27
2019-05-29T15:27:39.638Z,1.85
2019-05-29T15:30:08.829Z,1.10
2019-05-29T15:32:37.263Z,2.80
2019-05-29T15:35:06.616Z,2.10
2019-05-29T15:37:34.837Z,2.80
2019-05-29T15:40:04.216Z,2.03
2019-05-29T15:42:32.440Z,1.93
2019-05-29T15:45:01.259Z,1.98
2019-05-29T15:47:30.025Z,2.53
2019-05-29T15:49:59.099Z,3.35
2019-05-29T15:52:27.699Z,1.72
2019-05-29T15:54:55.948Z,1.60
2019-05-29T15:57:24.517Z,1.30
2019-05-29T15:59:53.347Z,2.25
2019-05-29T16:02:21.983Z,1.53
2019-05-29T16:04:50.815Z,3.08
2019-05-29T16:07:19.344Z,1.70
2019-05-29T16:09:47.531Z,1.62
2019-05-29T16:12:16.796Z,1.52
2019-05-29T16:14:45.747Z,2.20
2019-05-29T16:17:15.242Z,1.60
2019-05-29T16:19:44.148Z,2.00
2019-05-29T16:22:12.705Z,2.57
2019-05-29T16:24:41.021Z,1.37
2019-05-29T16:27:12.152Z,1.37
2019-05-29T16:29:40.344Z,1.70
2019-05-29T16:32:08.776Z,1.12
2019-05-29T16:34:37.374Z,1.42
2019-05-29T16:37:05.736Z,1.50
2019-05-29T16:39:33.970Z,2.10
2019-05-29T16:42:02.578Z,2.50
2019-05-29T16:44:31.392Z,3.75
2019-05-29T16:47:00.224Z,1.42
2019-05-29T16:49:29.071Z,2.15
2019-05-29T16:51:57.415Z,1.00
2019-05-29T16:54:25.752Z,1.53
2019-05-29T16:56:54.205Z,6.50
2019-05-29T16:59:25.357Z,1.60
2019-05-29T17:01:52.738Z,2.30
2019-05-29T17:04:21.726Z,1.30
2019-05-29T17:06:49.912Z,1.30
2019-05-29T17:09:18.416Z,2.07
2019-05-29T17:11:47.314Z,1.50
2019-05-29T17:14:16.419Z,1.40
2019-05-29T17:16:45.279Z,2.37
2019-05-29T17:19:14.513Z,3.90
2019-05-29T17:21:43.282Z,1.50
2019-05-29T17:24:12.142Z,1.80
2019-05-29T17:26:40.657Z,2.60
2019-05-29T17:29:09.579Z,1.75
2019-05-29T17:31:38.402Z,1.72
2019-05-29T17:34:07.319Z,1.70
2019-05-29T17:36:35.858Z,2.20
2019-05-29T17:39:05.688Z,1.97
2019-05-29T17:41:33.923Z,1.60
2019-05-29T17:44:02.424Z,2.13
2019-05-29T17:46:30.657Z,3.40
2019-05-29T17:48:58.860Z,4.13
2019-05-29T17:51:27.160Z,5.80
2019-05-29T17:53:55.437Z,6.00
2019-05-29T17:56:34.569Z,3.70
2019-05-29T17:58:53.632Z,4.03
2019-05-29T18:01:22.252Z,2.63
2019-05-29T18:03:50.511Z,3.10
2019-05-29T18:06:18.778Z,2.50
2019-05-29T18:08:47.035Z,2.60
2019-05-29T18:11:15.312Z,2.50
2019-05-29T18:13:43.557Z,2.80
2019-05-29T18:16:11.836Z,2.00
2019-05-29T18:18:40.125Z,2.97
2019-05-29T18:21:08.353Z,2.67
2019-05-29T18:23:36.523Z,2.83
2019-05-29T18:26:04.731Z,3.20
2019-05-29T18:28:33.186Z,3.87
2019-05-29T18:31:01.420Z,1.97
2019-05-29T18:33:29.743Z,5.10
2019-05-29T18:35:58.000Z,2.83
2019-05-29T18:38:26.571Z,3.90
2019-05-29T18:40:54.806Z,3.53
2019-05-29T18:43:23.038Z,2.90
2019-05-29T18:45:51.317Z,3.50
2019-05-29T18:48:19.552Z,3.33
2019-05-29T18:50:47.856Z,6.77
2019-05-29T18:53:16.081Z,3.37
2019-05-29T18:55:44.358Z,3.77
2019-05-29T18:58:12.780Z,4.07
2019-05-29T19:00:41.078Z,3.20
2019-05-29T19:03:09.292Z,2.63
2019-05-29T19:05:37.738Z,3.30
2019-05-29T19:08:06.054Z,4.90
2019-05-29T19:10:34.530Z,2.10
2019-05-29T19:13:02.852Z,2.10
2019-05-29T19:15:32.111Z,2.40
2019-05-29T19:18:00.353Z,3.23
2019-05-29T19:20:28.694Z,3.20
2019-05-29T19:22:56.986Z,2.33
2019-05-29T19:25:26.714Z,3.47
2019-05-29T19:27:55.086Z,3.17
2019-05-29T19:30:24.732Z,3.70
2019-05-29T19:32:53.568Z,3.17
2019-05-29T19:35:23.400Z,4.63
2019-05-29T19:37:52.149Z,1.97
2019-05-29T19:40:20.962Z,3.07
2019-05-29T19:42:49.635Z,3.00
2019-05-29T19:45:18.358Z,2.50
2019-05-29T19:47:46.901Z,5.60
2019-05-29T19:50:15.924Z,4.67
2019-05-29T19:52:44.201Z,3.83
2019-05-29T19:55:13.830Z,4.33
2019-05-29T19:57:54.810Z,3.57
2019-05-29T20:00:12.356Z,3.67
2019-05-29T20:02:41.178Z,2.60
2019-05-29T20:05:10.162Z,2.73
2019-05-29T20:07:38.448Z,2.93
2019-05-29T20:10:07.875Z,2.73
2019-05-29T20:12:36.238Z,4.97
2019-05-29T20:15:05.781Z,4.40
2019-05-29T20:17:34.331Z,5.37
2019-05-29T20:20:02.987Z,4.37
2019-05-29T20:22:32.332Z,4.93
2019-05-29T20:25:00.744Z,3.37
2019-05-29T20:27:30.016Z,3.03
2019-05-29T20:29:58.309Z,2.93
2019-05-29T20:32:26.628Z,3.20
2019-05-29T20:34:54.860Z,2.80
2019-05-29T20:37:23.060Z,2.63
2019-05-29T20:39:51.603Z,3.43
2019-05-29T20:42:19.854Z,2.90
2019-05-29T20:44:48.113Z,4.83
2019-05-29T20:47:16.462Z,3.53
2019-05-29T20:49:47.479Z,3.93
2019-05-29T20:52:14.651Z,3.30
2019-05-29T20:54:42.901Z,3.50
2019-05-29T20:57:11.311Z,3.33
2019-05-29T20:59:40.552Z,2.50
2019-05-29T21:02:08.788Z,4.17
2019-05-29T21:04:36.999Z,2.70
2019-05-29T21:07:05.325Z,3.27
2019-05-29T21:09:34.848Z,2.77
2019-05-29T21:12:03.111Z,3.03
2019-05-29T21:14:31.438Z,2.40
2019-05-29T21:16:59.679Z,4.23
2019-05-29T21:19:27.967Z,5.30
2019-05-29T21:21:56.254Z,4.17
2019-05-29T21:24:24.713Z,3.17
2019-05-29T21:26:52.957Z,4.83
2019-05-29T21:29:21.245Z,2.63
2019-05-29T21:31:49.431Z,3.07
2019-05-29T21:34:17.723Z,3.20
2019-05-29T21:36:46.389Z,4.40
2019-05-29T21:39:14.748Z,3.80
2019-05-29T21:41:43.003Z,2.53
2019-05-29T21:44:11.350Z,3.83
2019-05-29T21:46:40.840Z,3.53
2019-05-29T21:49:09.172Z,2.30
2019-05-29T21:51:37.462Z,3.20
2019-05-29T21:54:05.782Z,3.73
2019-05-29T21:56:34.090Z,3.53
2019-05-29T21:59:04.084Z,2.90
2019-05-29T22:01:32.542Z,2.00
2019-05-29T22:04:00.895Z,2.30
2019-05-29T22:06:29.238Z,3.80
2019-05-29T22:08:57.513Z,3.07
2019-05-29T22:11:25.759Z,2.43
2019-05-29T22:13:54.395Z,3.40
2019-05-29T22:16:23.056Z,1.83
2019-05-29T22:18:51.332Z,1.80
2019-05-29T22:21:19.948Z,1.70
2019-05-29T22:23:48.227Z,2.20
2019-05-29T22:26:16.805Z,2.20
2019-05-29T22:28:45.089Z,1.93
2019-05-29T22:31:13.426Z,2.07
2019-05-29T22:33:41.871Z,4.27
2019-05-29T22:36:10.052Z,1.90
2019-05-29T22:38:38.527Z,2.23
2019-05-29T22:41:06.844Z,1.57
2019-05-29T22:43:35.017Z,2.10
2019-05-29T22:46:03.281Z,2.33
2019-05-29T22:48:31.525Z,3.00
2019-05-29T22:50:59.958Z,2.03
2019-05-29T22:53:28.175Z,2.20
2019-05-29T22:55:57.811Z,3.87
2019-05-29T22:58:26.467Z,3.20
2019-05-29T23:00:55.952Z,2.73
2019-05-29T23:03:24.548Z,1.60
2019-05-29T23:05:53.986Z,2.37
2019-05-29T23:08:22.880Z,3.40
2019-05-29T23:10:52.266Z,2.00
2019-05-29T23:13:20.504Z,1.70
2019-05-29T23:15:49.311Z,3.17
2019-05-29T23:18:17.519Z,2.23
2019-05-29T23:20:45.815Z,2.60
2019-05-29T23:23:14.059Z,2.23
2019-05-29T23:25:42.371Z,1.90
2019-05-29T23:28:10.795Z,3.13
2019-05-29T23:30:39.406Z,2.60
2019-05-29T23:33:07.659Z,1.70
2019-05-29T23:35:35.964Z,2.57
2019-05-29T23:38:04.237Z,2.77
2019-05-29T23:40:32.484Z,2.40
2019-05-29T23:43:01.570Z,2.00
2019-05-29T23:45:29.866Z,2.83
2019-05-29T23:47:58.143Z,2.60
2019-05-29T23:50:26.508Z,2.10
2019-05-29T23:52:55.599Z,2.53
2019-05-29T23:55:24.026Z,1.60
2019-05-29T23:57:53.601Z,3.13
